UTTT

Tashkent International Airport

Tashkent, Uzbekistan
TAF UTTT 210500Z 2106/2206 08008KT 6000 SCT008 BKN100 TEMPO 2112/2116 1000 BR BKN005 TEMPO 2116/ 2204 0600 FZFG BKN003
Issued Valid From Valid To
Jan-21 @ 05:00 UTC
(6 hours ago)
Jan-21 @ 06:00 UTC
(5 hours ago)
Jan-22 @ 06:00 UTC
(in 19 hours)
Jan-21 @ 06:00 to Jan-22 @ 06:00
TAF UTTT 210500Z 2106/2206 08008KT 6000 SCT008 BKN100
Wind Visibility Clouds
80° at 8 knots 6,003 meters
  • Scattered at 800' AGL
  • Broken at 10,000' AGL
Temporary Jan-21 @ 12:00 to Jan-21 @ 16:00
TEMPO 2112/2116 1000 BR BKN005
Visibility Clouds Conditions
998 meters
  • Broken at 500' AGL
  • Mist
TAF UTTT 210500Z 2106/2206 08008KT 6000 SCT008 BKN100 TEMPO 2112/2116 1000 BR BKN005 TEMPO 2116/ 2204 0600 FZFG BKN003
Issued Jan-21 @ 05:00 UTC
(6 hours ago)
Valid From Jan-21 @ 06:00 UTC
(5 hours ago)
Valid To Jan-22 @ 06:00 UTC
(in 19 hours)
Jan-21 @ 06:00 - Jan-22 @ 06:00
Wind Visibility
80° at 8 knots 6,003 meters
Clouds
  • Scattered at 800' AGL
  • Broken at 10,000' AGL
Temporary Jan-21 @ 12:00 - Jan-21 @ 16:00
Clouds
  • Broken at 500' AGL
Conditions
  • Mist